sensor_id;sensor_type;location;lat;lon;timestamp;pressure;altitude;pressure_sealevel;temperature;humidity
32131;BME280;18639;50.716;7.086;2022-07-05T00:02:20;100813.09;;;16.58;84.58
32131;BME280;18639;50.716;7.086;2022-07-05T00:04:45;100813.19;;;16.57;85.35
32131;BME280;18639;50.716;7.086;2022-07-05T00:07:10;100780.84;;;16.27;85.06
32131;BME280;18639;50.716;7.086;2022-07-05T00:09:54;100828.38;;;16.63;85.31
32131;BME280;18639;50.716;7.086;2022-07-05T00:12:21;100808.63;;;16.49;85.79
32131;BME280;18639;50.716;7.086;2022-07-05T00:14:48;100832.91;;;16.61;86.28
32131;BME280;18639;50.716;7.086;2022-07-05T00:17:13;100806.25;;;16.46;86.49
32131;BME280;18639;50.716;7.086;2022-07-05T00:19:39;100830.31;;;16.61;86.50
32131;BME280;18639;50.716;7.086;2022-07-05T00:22:05;100827.00;;;16.59;86.58
32131;BME280;18639;50.716;7.086;2022-07-05T00:24:30;100824.66;;;16.45;87.05
32131;BME280;18639;50.716;7.086;2022-07-05T00:26:56;100815.16;;;16.43;87.23
32131;BME280;18639;50.716;7.086;2022-07-05T00:29:21;100834.34;;;16.54;87.67
32131;BME280;18639;50.716;7.086;2022-07-05T00:31:46;100826.94;;;16.38;87.52
32131;BME280;18639;50.716;7.086;2022-07-05T00:34:22;100835.59;;;16.38;87.13
32131;BME280;18639;50.716;7.086;2022-07-05T00:36:47;100785.53;;;16.13;87.60
32131;BME280;18639;50.716;7.086;2022-07-05T00:39:13;100799.13;;;16.16;87.98
32131;BME280;18639;50.716;7.086;2022-07-05T00:41:38;100824.97;;;16.19;87.78
32131;BME280;18639;50.716;7.086;2022-07-05T00:44:06;100841.03;;;16.35;87.75
32131;BME280;18639;50.716;7.086;2022-07-05T00:46:33;100837.28;;;16.28;87.53
32131;BME280;18639;50.716;7.086;2022-07-05T00:48:59;100839.63;;;16.31;88.07
32131;BME280;18639;50.716;7.086;2022-07-05T00:51:26;100838.56;;;16.34;87.95
32131;BME280;18639;50.716;7.086;2022-07-05T00:53:51;100844.63;;;16.34;88.24
32131;BME280;18639;50.716;7.086;2022-07-05T00:56:19;100818.81;;;16.09;87.71
32131;BME280;18639;50.716;7.086;2022-07-05T00:58:44;100838.13;;;16.29;87.63
32131;BME280;18639;50.716;7.086;2022-07-05T04:43:30;100900.56;;;16.30;94.10
32131;BME280;18639;50.716;7.086;2022-07-05T04:45:56;100901.03;;;16.35;93.87
32131;BME280;18639;50.716;7.086;2022-07-05T04:48:28;100909.78;;;16.46;93.16
32131;BME280;18639;50.716;7.086;2022-07-05T04:50:54;100903.50;;;16.48;92.91
32131;BME280;18639;50.716;7.086;2022-07-05T04:53:19;100891.78;;;16.42;92.80
32131;BME280;18639;50.716;7.086;2022-07-05T04:55:44;100903.13;;;16.64;92.40
32131;BME280;18639;50.716;7.086;2022-07-05T04:58:10;100846.25;;;16.35;92.51
32131;BME280;18639;50.716;7.086;2022-07-05T05:00:36;100908.06;;;16.67;91.97
32131;BME280;18639;50.716;7.086;2022-07-05T05:03:01;100897.16;;;16.73;92.06
32131;BME280;18639;50.716;7.086;2022-07-05T05:05:27;100900.84;;;16.70;91.66
32131;BME280;18639;50.716;7.086;2022-07-05T05:07:52;100856.16;;;16.53;91.78
32131;BME280;18639;50.716;7.086;2022-07-05T05:10:17;100900.22;;;16.78;92.09
32131;BME280;18639;50.716;7.086;2022-07-05T05:12:43;100871.81;;;16.64;91.53
32131;BME280;18639;50.716;7.086;2022-07-05T05:15:08;100834.63;;;16.39;91.86
32131;BME280;18639;50.716;7.086;2022-07-05T05:17:40;100909.66;;;16.90;91.90
32131;BME280;18639;50.716;7.086;2022-07-05T05:20:09;100922.41;;;17.04;92.08
32131;BME280;18639;50.716;7.086;2022-07-05T05:22:35;100881.22;;;16.87;90.90
32131;BME280;18639;50.716;7.086;2022-07-05T05:25:00;100890.44;;;16.91;90.62
32131;BME280;18639;50.716;7.086;2022-07-05T05:27:26;100902.28;;;16.95;90.30
32131;BME280;18639;50.716;7.086;2022-07-05T05:29:51;100912.88;;;17.14;89.98
32131;BME280;18639;50.716;7.086;2022-07-05T05:32:16;100860.75;;;16.92;89.16
32131;BME280;18639;50.716;7.086;2022-07-05T05:34:42;100930.56;;;17.32;88.89
32131;BME280;18639;50.716;7.086;2022-07-05T05:37:07;100877.81;;;16.96;89.28
32131;BME280;18639;50.716;7.086;2022-07-05T05:39:33;100934.34;;;17.39;89.33
32131;BME280;18639;50.716;7.086;2022-07-05T05:41:58;100927.06;;;17.42;89.37
32131;BME280;18639;50.716;7.086;2022-07-05T05:44:23;100935.19;;;17.60;88.61
32131;BME280;18639;50.716;7.086;2022-07-05T05:46:49;100922.88;;;17.51;87.65
32131;BME280;18639;50.716;7.086;2022-07-05T05:49:14;100943.50;;;17.75;87.40
32131;BME280;18639;50.716;7.086;2022-07-05T05:51:39;100909.13;;;17.58;86.86
32131;BME280;18639;50.716;7.086;2022-07-05T05:54:04;100932.81;;;17.78;87.34
32131;BME280;18639;50.716;7.086;2022-07-05T05:56:30;100942.47;;;17.87;85.23
32131;BME280;18639;50.716;7.086;2022-07-05T05:58:55;100933.34;;;17.81;85.96
32131;BME280;18639;50.716;7.086;2022-07-05T06:01:20;100917.94;;;17.78;86.14
32131;BME280;18639;50.716;7.086;2022-07-05T06:03:46;100924.72;;;17.90;86.73
32131;BME280;18639;50.716;7.086;2022-07-05T06:06:13;100922.69;;;17.94;84.51
32131;BME280;18639;50.716;7.086;2022-07-05T06:09:09;100937.88;;;18.09;84.74
32131;BME280;18639;50.716;7.086;2022-07-05T06:12:10;100943.97;;;18.20;85.21
32131;BME280;18639;50.716;7.086;2022-07-05T06:14:43;100938.34;;;18.24;83.56
32131;BME280;18639;50.716;7.086;2022-07-05T06:17:13;100947.59;;;18.38;84.00
32131;BME280;18639;50.716;7.086;2022-07-05T06:19:46;100945.00;;;18.47;83.66
32131;BME280;18639;50.716;7.086;2022-07-05T06:22:12;100937.56;;;18.43;82.06
32131;BME280;18639;50.716;7.086;2022-07-05T06:24:45;100956.25;;;18.69;81.36
32131;BME280;18639;50.716;7.086;2022-07-05T06:27:10;100934.47;;;18.68;81.12
32131;BME280;18639;50.716;7.086;2022-07-05T06:29:38;100947.97;;;18.73;81.42
32131;BME280;18639;50.716;7.086;2022-07-05T06:32:03;100963.00;;;18.90;81.11
32131;BME280;18639;50.716;7.086;2022-07-05T06:34:29;100910.47;;;18.73;80.43
32131;BME280;18639;50.716;7.086;2022-07-05T06:36:54;100951.56;;;19.01;80.49
32131;BME280;18639;50.716;7.086;2022-07-05T06:39:19;100932.81;;;19.06;80.18
32131;BME280;18639;50.716;7.086;2022-07-05T06:41:45;100971.94;;;19.36;81.05
32131;BME280;18639;50.716;7.086;2022-07-05T06:44:10;100928.66;;;19.13;80.79
32131;BME280;18639;50.716;7.086;2022-07-05T06:46:54;100952.91;;;19.44;80.38
32131;BME280;18639;50.716;7.086;2022-07-05T06:49:19;100936.06;;;19.46;78.61
32131;BME280;18639;50.716;7.086;2022-07-05T06:51:44;100915.09;;;19.37;77.71
32131;BME280;18639;50.716;7.086;2022-07-05T06:54:10;100939.91;;;19.61;78.64
32131;BME280;18639;50.716;7.086;2022-07-05T06:56:36;100942.34;;;19.72;76.14
32131;BME280;18639;50.716;7.086;2022-07-05T06:59:01;100969.06;;;19.95;77.02
32131;BME280;18639;50.716;7.086;2022-07-05T07:01:37;100940.13;;;19.87;77.04
32131;BME280;18639;50.716;7.086;2022-07-05T07:04:12;100966.47;;;20.23;75.24
32131;BME280;18639;50.716;7.086;2022-07-05T07:06:38;100945.22;;;20.16;74.70
32131;BME280;18639;50.716;7.086;2022-07-05T07:09:07;100964.00;;;20.48;74.05
32131;BME280;18639;50.716;7.086;2022-07-05T07:11:59;100961.47;;;20.56;71.86
32131;BME280;18639;50.716;7.086;2022-07-05T07:14:26;100962.59;;;20.72;71.71
32131;BME280;18639;50.716;7.086;2022-07-05T07:16:56;100984.38;;;20.99;71.57
32131;BME280;18639;50.716;7.086;2022-07-05T07:19:40;100960.03;;;20.80;68.18
32131;BME280;18639;50.716;7.086;2022-07-05T07:22:06;100958.41;;;20.61;70.03
32131;BME280;18639;50.716;7.086;2022-07-05T07:24:44;100961.72;;;20.81;69.64
32131;BME280;18639;50.716;7.086;2022-07-05T07:27:19;100955.03;;;20.86;69.75
32131;BME280;18639;50.716;7.086;2022-07-05T07:29:57;100960.88;;;20.80;67.87
32131;BME280;18639;50.716;7.086;2022-07-05T07:32:35;100974.78;;;21.08;68.62
32131;BME280;18639;50.716;7.086;2022-07-05T07:38:07;100962.91;;;21.22;66.85
32131;BME280;18639;50.716;7.086;2022-07-05T07:40:46;100977.63;;;21.32;65.30
32131;BME280;18639;50.716;7.086;2022-07-05T07:43:17;100968.50;;;21.45;65.69
32131;BME280;18639;50.716;7.086;2022-07-05T07:45:54;100960.25;;;21.65;66.04
32131;BME280;18639;50.716;7.086;2022-07-05T07:48:37;100960.69;;;21.87;65.22
32131;BME280;18639;50.716;7.086;2022-07-05T07:51:19;100966.59;;;22.06;65.67
32131;BME280;18639;50.716;7.086;2022-07-05T07:53:46;100960.38;;;22.15;66.26
32131;BME280;18639;50.716;7.086;2022-07-05T07:56:12;100955.97;;;22.24;64.15
32131;BME280;18639;50.716;7.086;2022-07-05T07:58:37;100977.78;;;22.50;64.08
32131;BME280;18639;50.716;7.086;2022-07-05T08:01:05;100974.00;;;22.53;60.86
32131;BME280;18639;50.716;7.086;2022-07-05T08:03:41;100968.88;;;22.43;63.18
32131;BME280;18639;50.716;7.086;2022-07-05T08:06:11;100970.06;;;22.57;62.06
32131;BME280;18639;50.716;7.086;2022-07-05T08:08:43;100987.25;;;22.77;63.28
32131;BME280;18639;50.716;7.086;2022-07-05T08:11:10;100981.69;;;22.88;63.10
32131;BME280;18639;50.716;7.086;2022-07-05T08:13:37;100973.28;;;22.93;60.79
32131;BME280;18639;50.716;7.086;2022-07-05T08:16:03;100968.66;;;22.95;57.26
32131;BME280;18639;50.716;7.086;2022-07-05T08:18:32;100971.81;;;23.15;58.38
32131;BME280;18639;50.716;7.086;2022-07-05T08:21:20;100980.38;;;23.17;56.94
32131;BME280;18639;50.716;7.086;2022-07-05T08:24:07;100971.97;;;23.21;58.58
32131;BME280;18639;50.716;7.086;2022-07-05T08:26:33;100971.16;;;23.29;58.52
32131;BME280;18639;50.716;7.086;2022-07-05T08:29:00;100969.50;;;23.36;55.86
32131;BME280;18639;50.716;7.086;2022-07-05T08:31:31;100939.31;;;23.30;58.70
32131;BME280;18639;50.716;7.086;2022-07-05T08:34:10;100946.25;;;23.39;57.20
32131;BME280;18639;50.716;7.086;2022-07-05T08:36:36;100951.38;;;23.49;55.81
32131;BME280;18639;50.716;7.086;2022-07-05T08:39:03;100935.19;;;23.52;54.43
32131;BME280;18639;50.716;7.086;2022-07-05T08:41:29;100947.72;;;23.58;54.09
32131;BME280;18639;50.716;7.086;2022-07-05T08:43:55;100949.69;;;23.56;53.01
32131;BME280;18639;50.716;7.086;2022-07-05T08:46:24;100945.09;;;23.26;52.75
32131;BME280;18639;50.716;7.086;2022-07-05T08:48:50;100897.66;;;22.93;53.19
32131;BME280;18639;50.716;7.086;2022-07-05T08:51:20;100963.56;;;23.66;53.46
32131;BME280;18639;50.716;7.086;2022-07-05T08:56:53;100960.72;;;24.15;54.97
32131;BME280;18639;50.716;7.086;2022-07-05T08:59:18;100950.31;;;24.29;51.98
32131;BME280;18639;50.716;7.086;2022-07-05T09:01:59;100969.47;;;24.54;53.24
32131;BME280;18639;50.716;7.086;2022-07-05T09:04:30;100974.66;;;24.70;50.43
32131;BME280;18639;50.716;7.086;2022-07-05T09:07:02;100937.53;;;24.41;50.70
32131;BME280;18639;50.716;7.086;2022-07-05T09:12:32;100962.34;;;24.86;50.17
32131;BME280;18639;50.716;7.086;2022-07-05T09:14:57;100955.53;;;25.14;50.19
32131;BME280;18639;50.716;7.086;2022-07-05T09:17:23;100948.44;;;24.92;49.76
32131;BME280;18639;50.716;7.086;2022-07-05T09:20:08;100962.44;;;24.69;50.87
32131;BME280;18639;50.716;7.086;2022-07-05T09:22:50;100963.59;;;24.44;51.76
32131;BME280;18639;50.716;7.086;2022-07-05T09:25:49;100973.94;;;24.15;52.19
32131;BME280;18639;50.716;7.086;2022-07-05T09:28:15;100960.00;;;23.98;51.68
32131;BME280;18639;50.716;7.086;2022-07-05T09:30:43;100959.59;;;24.48;51.02
32131;BME280;18639;50.716;7.086;2022-07-05T09:33:10;100945.41;;;24.72;47.26
32131;BME280;18639;50.716;7.086;2022-07-05T09:35:38;100936.03;;;25.15;46.33
32131;BME280;18639;50.716;7.086;2022-07-05T09:38:06;100965.94;;;25.15;46.58
32131;BME280;18639;50.716;7.086;2022-07-05T09:40:49;100967.41;;;25.18;45.61
32131;BME280;18639;50.716;7.086;2022-07-05T09:43:33;100928.38;;;24.74;48.07
32131;BME280;18639;50.716;7.086;2022-07-05T09:46:02;100945.94;;;25.50;47.88
32131;BME280;18639;50.716;7.086;2022-07-05T09:48:32;100961.28;;;26.64;45.89
32131;BME280;18639;50.716;7.086;2022-07-05T09:51:16;100953.81;;;27.66;42.67
32131;BME280;18639;50.716;7.086;2022-07-05T09:53:55;100952.75;;;28.49;41.80
32131;BME280;18639;50.716;7.086;2022-07-05T09:56:49;100957.34;;;29.60;38.93
32131;BME280;18639;50.716;7.086;2022-07-05T09:59:16;100949.28;;;29.87;38.08
32131;BME280;18639;50.716;7.086;2022-07-05T10:01:44;100947.31;;;30.27;34.38
32131;BME280;18639;50.716;7.086;2022-07-05T10:04:09;100953.31;;;30.09;34.61
32131;BME280;18639;50.716;7.086;2022-07-05T10:06:57;100950.00;;;30.20;35.91
32131;BME280;18639;50.716;7.086;2022-07-05T10:09:22;100958.72;;;29.89;34.72
32131;BME280;18639;50.716;7.086;2022-07-05T10:11:49;100930.66;;;30.31;35.37
32131;BME280;18639;50.716;7.086;2022-07-05T10:14:17;100954.81;;;30.81;31.89
32131;BME280;18639;50.716;7.086;2022-07-05T10:16:45;100940.09;;;30.72;32.84
32131;BME280;18639;50.716;7.086;2022-07-05T10:19:15;100965.81;;;30.91;31.05
32131;BME280;18639;50.716;7.086;2022-07-05T10:21:43;100961.22;;;31.05;33.66
32131;BME280;18639;50.716;7.086;2022-07-05T10:24:09;100950.09;;;31.08;33.32
32131;BME280;18639;50.716;7.086;2022-07-05T10:26:35;100941.47;;;31.06;31.53
32131;BME280;18639;50.716;7.086;2022-07-05T10:29:02;100923.81;;;31.48;32.15
32131;BME280;18639;50.716;7.086;2022-07-05T10:31:28;100957.66;;;31.79;31.20
32131;BME280;18639;50.716;7.086;2022-07-05T10:33:55;100933.06;;;31.27;30.33
32131;BME280;18639;50.716;7.086;2022-07-05T10:36:21;100955.91;;;30.67;31.96
32131;BME280;18639;50.716;7.086;2022-07-05T10:38:48;100944.69;;;29.36;32.51
32131;BME280;18639;50.716;7.086;2022-07-05T10:41:18;100960.25;;;29.46;33.65
32131;BME280;18639;50.716;7.086;2022-07-05T10:43:53;100940.50;;;29.73;33.40
32131;BME280;18639;50.716;7.086;2022-07-05T10:46:33;100953.16;;;30.04;32.24
32131;BME280;18639;50.716;7.086;2022-07-05T10:49:17;100947.34;;;30.13;32.71
32131;BME280;18639;50.716;7.086;2022-07-05T10:51:45;100944.50;;;30.08;30.87
32131;BME280;18639;50.716;7.086;2022-07-05T10:54:12;100935.66;;;29.44;31.77
32131;BME280;18639;50.716;7.086;2022-07-05T10:56:37;100949.19;;;29.16;32.68
32131;BME280;18639;50.716;7.086;2022-07-05T10:59:26;100953.28;;;28.99;33.49
32131;BME280;18639;50.716;7.086;2022-07-05T11:02:11;100925.63;;;28.80;35.48
32131;BME280;18639;50.716;7.086;2022-07-05T11:04:37;100948.47;;;28.00;33.64
32131;BME280;18639;50.716;7.086;2022-07-05T11:07:04;100949.66;;;27.91;33.76
32131;BME280;18639;50.716;7.086;2022-07-05T11:09:29;100958.34;;;27.72;35.08
32131;BME280;18639;50.716;7.086;2022-07-05T11:19:33;100930.81;;;26.96;35.92
32131;BME280;18639;50.716;7.086;2022-07-05T11:22:04;100926.50;;;26.53;36.26
32131;BME280;18639;50.716;7.086;2022-07-05T11:24:31;100940.91;;;26.65;37.08
32131;BME280;18639;50.716;7.086;2022-07-05T11:27:25;100868.16;;;25.81;36.35
32131;BME280;18639;50.716;7.086;2022-07-05T11:29:53;100917.66;;;25.95;37.12
32131;BME280;18639;50.716;7.086;2022-07-05T11:35:19;100922.41;;;25.55;39.13
32131;BME280;18639;50.716;7.086;2022-07-05T11:38:20;100947.16;;;25.25;39.13
32131;BME280;18639;50.716;7.086;2022-07-05T11:40:49;100925.63;;;25.28;38.66
32131;BME280;18639;50.716;7.086;2022-07-05T11:43:29;100918.22;;;25.09;38.28
32131;BME280;18639;50.716;7.086;2022-07-05T11:45:59;100938.59;;;25.00;38.89
32131;BME280;18639;50.716;7.086;2022-07-05T11:48:49;100935.44;;;25.05;39.43
32131;BME280;18639;50.716;7.086;2022-07-05T11:51:23;100920.03;;;25.08;40.32
32131;BME280;18639;50.716;7.086;2022-07-05T11:53:48;100914.19;;;25.13;40.07
32131;BME280;18639;50.716;7.086;2022-07-05T11:56:13;100930.47;;;25.25;39.04
32131;BME280;18639;50.716;7.086;2022-07-05T11:58:39;100925.06;;;25.18;38.56
32131;BME280;18639;50.716;7.086;2022-07-05T12:01:04;100895.53;;;24.92;39.64
32131;BME280;18639;50.716;7.086;2022-07-05T12:03:35;100869.38;;;24.74;39.10
32131;BME280;18639;50.716;7.086;2022-07-05T12:06:17;100919.31;;;25.00;38.93
32131;BME280;18639;50.716;7.086;2022-07-05T12:08:43;100908.41;;;24.72;38.79
32131;BME280;18639;50.716;7.086;2022-07-05T12:11:12;100920.19;;;24.84;40.29
32131;BME280;18639;50.716;7.086;2022-07-05T12:13:57;100923.09;;;24.74;39.95
32131;BME280;18639;50.716;7.086;2022-07-05T12:16:22;100902.16;;;24.65;39.28
32131;BME280;18639;50.716;7.086;2022-07-05T12:19:04;100902.41;;;24.78;40.29
32131;BME280;18639;50.716;7.086;2022-07-05T12:21:31;100911.47;;;24.84;39.30
32131;BME280;18639;50.716;7.086;2022-07-05T12:23:57;100882.69;;;24.66;38.86
32131;BME280;18639;50.716;7.086;2022-07-05T12:26:22;100906.97;;;24.84;39.69
32131;BME280;18639;50.716;7.086;2022-07-05T12:28:49;100868.91;;;24.70;39.04
32131;BME280;18639;50.716;7.086;2022-07-05T12:31:22;100882.88;;;24.79;40.25
32131;BME280;18639;50.716;7.086;2022-07-05T12:34:17;100887.00;;;24.82;40.48
32131;BME280;18639;50.716;7.086;2022-07-05T12:36:43;100867.34;;;24.61;39.64
32131;BME280;18639;50.716;7.086;2022-07-05T12:39:08;100900.59;;;24.79;40.06
32131;BME280;18639;50.716;7.086;2022-07-05T12:41:43;100876.97;;;24.77;40.63
32131;BME280;18639;50.716;7.086;2022-07-05T12:44:29;100893.56;;;24.86;40.65
32131;BME280;18639;50.716;7.086;2022-07-05T12:47:13;100911.69;;;24.97;42.22
32131;BME280;18639;50.716;7.086;2022-07-05T12:50:18;100890.81;;;25.02;40.60
32131;BME280;18639;50.716;7.086;2022-07-05T12:53:10;100892.94;;;25.06;41.79
32131;BME280;18639;50.716;7.086;2022-07-05T12:56:03;100906.16;;;25.06;40.98
32131;BME280;18639;50.716;7.086;2022-07-05T12:58:54;100896.91;;;24.88;39.23
32131;BME280;18639;50.716;7.086;2022-07-05T13:01:37;100899.56;;;24.80;41.96
32131;BME280;18639;50.716;7.086;2022-07-05T13:04:13;100831.47;;;24.44;40.58
32131;BME280;18639;50.716;7.086;2022-07-05T13:06:51;100871.00;;;24.60;40.67
32131;BME280;18639;50.716;7.086;2022-07-05T13:09:40;100901.94;;;24.74;40.46
32131;BME280;18639;50.716;7.086;2022-07-05T13:12:25;100856.03;;;24.30;41.54
32131;BME280;18639;50.716;7.086;2022-07-05T13:15:07;100800.13;;;23.87;41.28
32131;BME280;18639;50.716;7.086;2022-07-05T13:17:33;100882.50;;;24.45;41.45
32131;BME280;18639;50.716;7.086;2022-07-05T13:19:59;100845.94;;;24.25;42.34
32131;BME280;18639;50.716;7.086;2022-07-05T13:22:25;100814.03;;;24.04;41.84
32131;BME280;18639;50.716;7.086;2022-07-05T13:24:50;100850.00;;;24.36;41.57
32131;BME280;18639;50.716;7.086;2022-07-05T13:27:32;100879.03;;;24.44;41.08
32131;BME280;18639;50.716;7.086;2022-07-05T13:30:07;100879.31;;;24.49;41.33
32131;BME280;18639;50.716;7.086;2022-07-05T13:32:32;100807.59;;;24.07;40.62
32131;BME280;18639;50.716;7.086;2022-07-05T13:35:01;100878.66;;;24.47;41.09
32131;BME280;18639;50.716;7.086;2022-07-05T13:37:29;100891.78;;;24.41;40.37
32131;BME280;18639;50.716;7.086;2022-07-05T13:40:13;100830.47;;;23.91;40.64
32131;BME280;18639;50.716;7.086;2022-07-05T13:42:41;100851.50;;;24.08;40.77
32131;BME280;18639;50.716;7.086;2022-07-05T13:45:09;100896.63;;;24.29;41.52
32131;BME280;18639;50.716;7.086;2022-07-05T13:47:35;100809.75;;;23.72;40.75
32131;BME280;18639;50.716;7.086;2022-07-05T13:50:01;100852.75;;;23.89;41.82
32131;BME280;18639;50.716;7.086;2022-07-05T13:52:45;100912.53;;;24.21;42.01
32131;BME280;18639;50.716;7.086;2022-07-05T13:55:10;100904.78;;;24.19;41.65
32131;BME280;18639;50.716;7.086;2022-07-05T13:57:36;100881.06;;;24.03;42.28
32131;BME280;18639;50.716;7.086;2022-07-05T14:03:10;100901.63;;;24.16;42.64
32131;BME280;18639;50.716;7.086;2022-07-05T14:05:35;100914.63;;;24.25;42.96
32131;BME280;18639;50.716;7.086;2022-07-05T14:08:01;100913.13;;;24.31;41.35
32131;BME280;18639;50.716;7.086;2022-07-05T14:10:26;100915.75;;;24.31;41.33
32131;BME280;18639;50.716;7.086;2022-07-05T14:12:51;100903.97;;;24.19;40.81
32131;BME280;18639;50.716;7.086;2022-07-05T14:15:19;100894.38;;;24.18;41.80
32131;BME280;18639;50.716;7.086;2022-07-05T14:17:44;100877.25;;;24.06;41.15
32131;BME280;18639;50.716;7.086;2022-07-05T14:20:10;100897.03;;;24.10;40.02
32131;BME280;18639;50.716;7.086;2022-07-05T14:22:35;100888.81;;;24.05;40.92
32131;BME280;18639;50.716;7.086;2022-07-05T14:25:01;100878.91;;;23.99;41.00
32131;BME280;18639;50.716;7.086;2022-07-05T14:27:26;100897.34;;;24.23;40.63
32131;BME280;18639;50.716;7.086;2022-07-05T14:29:51;100887.06;;;24.28;40.07
32131;BME280;18639;50.716;7.086;2022-07-05T14:32:16;100879.84;;;24.22;41.15
32131;BME280;18639;50.716;7.086;2022-07-05T14:34:42;100905.31;;;24.38;41.47
32131;BME280;18639;50.716;7.086;2022-07-05T14:37:07;100916.41;;;24.41;39.55
32131;BME280;18639;50.716;7.086;2022-07-05T14:39:32;100912.13;;;24.32;40.31
32131;BME280;18639;50.716;7.086;2022-07-05T14:41:58;100903.56;;;24.30;40.92
32131;BME280;18639;50.716;7.086;2022-07-05T14:44:23;100887.28;;;24.18;40.82
32131;BME280;18639;50.716;7.086;2022-07-05T14:46:48;100913.41;;;24.36;40.11
32131;BME280;18639;50.716;7.086;2022-07-05T14:49:15;100908.25;;;24.20;40.18
32131;BME280;18639;50.716;7.086;2022-07-05T14:51:40;100878.91;;;23.99;41.71
32131;BME280;18639;50.716;7.086;2022-07-05T14:54:08;100886.00;;;24.06;42.30
32131;BME280;18639;50.716;7.086;2022-07-05T14:56:34;100861.78;;;23.95;42.39
32131;BME280;18639;50.716;7.086;2022-07-05T14:59:00;100842.38;;;23.87;42.12
32131;BME280;18639;50.716;7.086;2022-07-05T15:01:26;100860.06;;;24.10;42.31
32131;BME280;18639;50.716;7.086;2022-07-05T15:03:51;100886.06;;;24.29;40.44
32131;BME280;18639;50.716;7.086;2022-07-05T15:06:18;100835.88;;;23.98;41.82
32131;BME280;18639;50.716;7.086;2022-07-05T15:08:48;100887.91;;;24.20;41.94
32131;BME280;18639;50.716;7.086;2022-07-05T15:11:13;100854.69;;;23.95;40.86
32131;BME280;18639;50.716;7.086;2022-07-05T15:13:39;100836.06;;;23.88;41.99
32131;BME280;18639;50.716;7.086;2022-07-05T15:16:04;100884.41;;;24.28;40.62
32131;BME280;18639;50.716;7.086;2022-07-05T15:18:30;100888.84;;;24.36;41.31
32131;BME280;18639;50.716;7.086;2022-07-05T15:20:56;100826.47;;;23.96;41.31
32131;BME280;18639;50.716;7.086;2022-07-05T15:23:21;100859.34;;;24.16;41.28
32131;BME280;18639;50.716;7.086;2022-07-05T15:25:49;100828.97;;;23.89;42.28
32131;BME280;18639;50.716;7.086;2022-07-05T15:28:14;100876.84;;;24.17;41.68
32131;BME280;18639;50.716;7.086;2022-07-05T15:30:40;100819.16;;;23.75;42.30
32131;BME280;18639;50.716;7.086;2022-07-05T15:36:14;100875.38;;;24.22;41.09
32131;BME280;18639;50.716;7.086;2022-07-05T15:38:39;100874.22;;;24.25;40.30
32131;BME280;18639;50.716;7.086;2022-07-05T15:41:14;100881.09;;;24.34;41.75
32131;BME280;18639;50.716;7.086;2022-07-05T15:43:39;100871.50;;;24.33;39.98
32131;BME280;18639;50.716;7.086;2022-07-05T15:46:04;100863.34;;;24.20;40.78
32131;BME280;18639;50.716;7.086;2022-07-05T15:48:30;100866.66;;;24.14;39.90
32131;BME280;18639;50.716;7.086;2022-07-05T15:50:55;100869.28;;;24.14;40.83
32131;BME280;18639;50.716;7.086;2022-07-05T15:53:23;100828.53;;;23.77;41.82
32131;BME280;18639;50.716;7.086;2022-07-05T15:55:49;100861.16;;;23.92;41.75
32131;BME280;18639;50.716;7.086;2022-07-05T15:58:14;100802.94;;;23.55;41.52
32131;BME280;18639;50.716;7.086;2022-07-05T16:00:40;100860.19;;;23.85;42.16
32131;BME280;18639;50.716;7.086;2022-07-05T16:03:05;100875.28;;;24.00;43.30
32131;BME280;18639;50.716;7.086;2022-07-05T16:05:34;100844.44;;;24.00;41.96
32131;BME280;18639;50.716;7.086;2022-07-05T16:07:59;100831.09;;;23.93;41.77
32131;BME280;18639;50.716;7.086;2022-07-05T16:10:25;100795.25;;;23.68;41.03
32131;BME280;18639;50.716;7.086;2022-07-05T16:12:57;100840.34;;;23.98;40.60
32131;BME280;18639;50.716;7.086;2022-07-05T16:15:25;100754.47;;;23.48;39.84
32131;BME280;18639;50.716;7.086;2022-07-05T16:18:09;100815.97;;;23.87;40.69
32131;BME280;18639;50.716;7.086;2022-07-05T16:20:35;100839.06;;;24.16;39.93
32131;BME280;18639;50.716;7.086;2022-07-05T16:23:01;100834.88;;;24.30;39.49
32131;BME280;18639;50.716;7.086;2022-07-05T16:25:32;100859.28;;;24.32;40.76
32131;BME280;18639;50.716;7.086;2022-07-05T16:27:57;100849.41;;;24.26;40.40
32131;BME280;18639;50.716;7.086;2022-07-05T16:30:27;100802.66;;;24.04;40.00
32131;BME280;18639;50.716;7.086;2022-07-05T16:32:59;100828.72;;;24.07;40.77
32131;BME280;18639;50.716;7.086;2022-07-05T16:35:24;100870.44;;;24.42;39.64
32131;BME280;18639;50.716;7.086;2022-07-05T16:37:50;100866.59;;;24.30;40.51
32131;BME280;18639;50.716;7.086;2022-07-05T16:40:16;100813.34;;;23.87;40.28
32131;BME280;18639;50.716;7.086;2022-07-05T16:42:41;100796.91;;;23.69;40.79
32131;BME280;18639;50.716;7.086;2022-07-05T16:45:07;100856.81;;;24.00;40.86
32131;BME280;18639;50.716;7.086;2022-07-05T16:47:36;100818.69;;;23.71;40.97
32131;BME280;18639;50.716;7.086;2022-07-05T16:50:03;100810.47;;;23.66;41.34
32131;BME280;18639;50.716;7.086;2022-07-05T16:52:29;100865.91;;;23.97;42.07
32131;BME280;18639;50.716;7.086;2022-07-05T16:54:54;100864.13;;;23.89;41.55
32131;BME280;18639;50.716;7.086;2022-07-05T16:57:21;100863.81;;;23.84;41.72
32131;BME280;18639;50.716;7.086;2022-07-05T16:59:46;100861.53;;;23.81;42.35
32131;BME280;18639;50.716;7.086;2022-07-05T17:02:12;100799.31;;;23.40;42.55
32131;BME280;18639;50.716;7.086;2022-07-05T17:04:38;100838.19;;;23.62;42.62
32131;BME280;18639;50.716;7.086;2022-07-05T17:07:03;100859.38;;;23.85;42.16
32131;BME280;18639;50.716;7.086;2022-07-05T17:09:30;100864.88;;;23.67;42.25
32131;BME280;18639;50.716;7.086;2022-07-05T17:11:56;100852.72;;;23.58;42.11
32131;BME280;18639;50.716;7.086;2022-07-05T17:14:33;100832.16;;;23.29;42.78